Time;durP1;ratioP1;P1;durP2;ratioP2;P2;SDS_P1;SDS_P2;PMS_P1;PMS_P2;Temp;Humidity;BMP_temperature;BMP_pressure;BME280_temperature;BME280_humidity;BME280_pressure;Samples;Min_cycle;Max_cycle;Signal;HPM_P1;HPM_P2
2023/08/24 00:02:06;;;;;;;115.15;57.90;;;22.10;82.90;;;;;;4938818;28;91879;-55
2023/08/24 00:04:33;;;;;;;112.18;57.85;;;22.10;83.10;;;;;;4935152;28;90375;-53
2023/08/24 00:06:59;;;;;;;112.22;57.90;;;22.10;83.20;;;;;;4937866;28;91737;-56
2023/08/24 00:09:25;;;;;;;111.75;57.88;;;22.00;83.30;;;;;;4942756;28;93676;-53
2023/08/24 00:11:51;;;;;;;110.05;57.50;;;22.10;83.60;;;;;;4935475;28;92127;-55
2023/08/24 00:14:17;;;;;;;111.22;57.55;;;22.10;83.50;;;;;;4926927;28;94614;-53
2023/08/24 00:16:42;;;;;;;112.05;57.65;;;22.00;83.40;;;;;;4940469;28;90526;-55
2023/08/24 00:19:08;;;;;;;111.13;57.15;;;22.00;83.60;;;;;;4943434;28;92372;-55
2023/08/24 00:21:34;;;;;;;111.65;57.78;;;22.00;83.50;;;;;;4938443;28;91752;-55
2023/08/24 00:23:59;;;;;;;112.53;58.75;;;22.00;83.50;;;;;;4943447;28;91100;-54
2023/08/24 00:26:25;;;;;;;111.68;58.15;;;22.00;83.50;;;;;;4937531;28;89620;-54
2023/08/24 00:28:51;;;;;;;110.43;57.17;;;22.00;83.50;;;;;;4947375;28;89599;-51
2023/08/24 00:31:17;;;;;;;111.53;57.72;;;22.10;84.10;;;;;;4945957;28;89930;-52
2023/08/24 00:33:43;;;;;;;110.82;57.50;;;22.10;83.50;;;;;;4945673;28;92031;-51
2023/08/24 00:36:09;;;;;;;112.03;57.55;;;22.00;83.60;;;;;;4926872;28;91636;-52
2023/08/24 00:38:34;;;;;;;110.57;57.55;;;22.10;83.60;;;;;;4938860;28;92198;-50
2023/08/24 00:41:00;;;;;;;111.97;57.45;;;22.10;83.40;;;;;;4948109;28;89357;-50
2023/08/24 00:43:27;;;;;;;111.57;57.38;;;22.10;83.50;;;;;;4941776;28;91835;-53
2023/08/24 00:45:56;;;;;;;111.65;57.33;;;22.10;83.70;;;;;;4946862;28;91183;-53
2023/08/24 00:48:25;;;;;;;110.43;57.67;;;22.10;83.60;;;;;;4942748;28;92672;-53
2023/08/24 00:51:01;;;;;;;110.68;57.58;;;22.10;83.50;;;;;;4951044;28;91484;-50
2023/08/24 00:53:29;;;;;;;111.47;58.13;;;22.10;83.40;;;;;;4943583;28;91848;-52
2023/08/24 00:55:55;;;;;;;111.10;57.58;;;22.10;83.50;;;;;;4947906;28;90036;-51
2023/08/24 00:58:21;;;;;;;110.38;57.50;;;22.10;83.50;;;;;;4953118;28;91762;-53
2023/08/24 01:00:56;;;;;;;110.13;57.30;;;22.10;83.50;;;;;;4940712;28;91050;-53
2023/08/24 01:03:23;;;;;;;112.18;57.42;;;22.10;83.50;;;;;;4935902;28;91255;-51
2023/08/24 01:05:49;;;;;;;110.55;57.75;;;22.10;83.50;;;;;;4943498;28;89599;-52
2023/08/24 01:08:15;;;;;;;111.18;57.78;;;22.10;83.60;;;;;;4939797;28;92593;-50
2023/08/24 01:11:07;;;;;;;110.50;57.20;;;22.10;83.50;;;;;;4943997;28;90743;-52
2023/08/24 01:14:14;;;;;;;110.68;57.58;;;22.10;83.50;;;;;;4943242;28;92650;-53
2023/08/24 01:16:45;;;;;;;111.55;58.13;;;22.10;83.50;;;;;;4918412;28;89858;-53
2023/08/24 01:19:20;;;;;;;;;;;22.10;83.50;;;;;;4938509;28;90879;-54
2023/08/24 01:21:46;;;;;;;111.55;57.20;;;22.10;83.60;;;;;;4949163;28;89580;-53
2023/08/24 01:24:17;;;;;;;111.88;57.53;;;22.10;84.00;;;;;;4941073;28;93423;-51
2023/08/24 01:26:44;;;;;;;110.20;57.42;;;22.10;84.30;;;;;;4946212;28;91283;-52
2023/08/24 01:29:10;;;;;;;111.60;57.50;;;22.10;84.00;;;;;;4942271;28;89764;-51
2023/08/24 01:31:36;;;;;;;110.10;57.33;;;22.10;84.30;;;;;;4948009;28;91992;-52
2023/08/24 01:34:01;;;;;;;113.03;58.15;;;22.10;84.40;;;;;;4943517;28;91299;-50
2023/08/24 01:36:27;;;;;;;111.68;57.85;;;22.10;84.40;;;;;;4944365;28;91154;-52
2023/08/24 01:39:12;;;;;;;110.82;57.75;;;22.10;84.40;;;;;;4930609;28;90654;-48
2023/08/24 01:41:39;;;;;;;110.45;57.78;;;22.10;84.30;;;;;;4935339;28;92745;-54
2023/08/24 01:44:07;;;;;;;110.85;57.38;;;22.10;84.10;;;;;;4945285;28;95625;-50
2023/08/24 01:46:34;;;;;;;112.50;57.58;;;22.10;84.40;;;;;;4941086;28;90210;-53
2023/08/24 01:49:00;;;;;;;113.07;57.47;;;22.00;84.40;;;;;;4943911;28;91368;-55
2023/08/24 01:51:26;;;;;;;113.32;57.95;;;22.00;84.10;;;;;;4922611;28;92102;-54
2023/08/24 01:53:53;;;;;;;111.57;58.03;;;22.00;84.10;;;;;;4949332;28;91857;-56
2023/08/24 01:56:18;;;;;;;111.47;57.88;;;22.00;84.30;;;;;;4946193;28;93916;-54
2023/08/24 01:58:44;;;;;;;110.15;57.50;;;21.90;84.20;;;;;;4940260;28;90203;-55
2023/08/24 02:01:10;;;;;;;111.30;57.90;;;21.90;84.60;;;;;;4945065;28;90753;-56
2023/08/24 02:03:36;;;;;;;110.13;57.50;;;21.90;84.20;;;;;;4943454;28;91112;-55
2023/08/24 02:06:02;;;;;;;110.82;57.78;;;21.90;84.80;;;;;;4945215;28;91518;-52
2023/08/24 02:08:28;;;;;;;111.50;57.55;;;21.90;84.50;;;;;;4940191;28;90144;-55
2023/08/24 02:10:53;;;;;;;112.85;58.05;;;21.80;84.50;;;;;;4944744;28;94537;-53
2023/08/24 02:13:19;;;;;;;111.07;58.00;;;21.80;84.30;;;;;;4950763;28;94251;-53
2023/08/24 02:15:44;;;;;;;110.78;57.65;;;21.80;84.50;;;;;;4943878;28;90115;-53
2023/08/24 02:18:10;;;;;;;113.32;58.22;;;21.80;84.60;;;;;;4943032;28;90986;-53
2023/08/24 02:20:37;;;;;;;111.90;57.50;;;21.80;84.60;;;;;;4939186;28;89765;-54
2023/08/24 02:23:03;;;;;;;110.65;57.80;;;21.70;84.80;;;;;;4946834;28;90434;-56
2023/08/24 02:25:29;;;;;;;112.05;58.47;;;21.70;85.00;;;;;;4938640;28;91209;-54
2023/08/24 02:27:55;;;;;;;111.43;57.90;;;21.80;84.60;;;;;;4945780;28;93462;-50
2023/08/24 02:30:20;;;;;;;112.30;57.70;;;21.80;85.00;;;;;;4944262;28;89889;-52
2023/08/24 02:32:46;;;;;;;109.90;57.58;;;21.70;85.30;;;;;;4944050;28;90101;-53
2023/08/24 02:35:11;;;;;;;110.43;57.65;;;21.70;85.30;;;;;;4943604;28;90890;-54
2023/08/24 02:37:37;;;;;;;110.20;57.83;;;21.70;85.30;;;;;;4939882;28;92008;-54
2023/08/24 02:40:03;;;;;;;110.43;57.67;;;21.70;85.40;;;;;;4939443;28;92222;-53
2023/08/24 02:42:32;;;;;;;110.68;57.35;;;21.70;85.00;;;;;;4934213;28;94906;-54
2023/08/24 02:44:58;;;;;;;111.22;57.85;;;21.70;85.10;;;;;;4944119;28;90041;-54
2023/08/24 02:47:24;;;;;;;111.28;57.92;;;21.60;85.40;;;;;;4939634;28;91801;-54
2023/08/24 02:49:49;;;;;;;111.82;58.42;;;21.60;85.10;;;;;;4950978;28;90362;-54
2023/08/24 02:52:15;;;;;;;112.05;58.17;;;21.60;85.10;;;;;;4941086;28;91867;-53
2023/08/24 02:54:41;;;;;;;112.18;57.70;;;21.60;85.30;;;;;;4938641;28;91771;-55
2023/08/24 02:57:06;;;;;;;111.50;57.67;;;21.60;85.40;;;;;;4942901;28;91294;-53
2023/08/24 02:59:32;;;;;;;111.70;57.92;;;21.60;85.50;;;;;;4941092;28;89758;-52
2023/08/24 03:01:58;;;;;;;112.22;58.33;;;21.50;85.40;;;;;;4942067;28;90110;-51
2023/08/24 03:04:23;;;;;;;111.63;58.03;;;21.50;85.50;;;;;;4936050;28;91629;-51
2023/08/24 03:06:49;;;;;;;112.90;58.85;;;21.50;85.60;;;;;;4945514;28;92383;-51
2023/08/24 03:09:15;;;;;;;110.47;57.25;;;21.40;85.60;;;;;;4941561;28;90364;-51
2023/08/24 03:11:41;;;;;;;112.63;58.47;;;21.50;85.60;;;;;;4941826;28;92553;-49
2023/08/24 03:14:07;;;;;;;113.30;57.97;;;21.40;85.90;;;;;;4939803;28;91621;-51
2023/08/24 03:16:32;;;;;;;111.45;58.08;;;21.40;85.80;;;;;;4937863;28;94643;-52
2023/08/24 03:18:58;;;;;;;110.63;57.65;;;21.40;86.50;;;;;;4943014;28;92560;-50
2023/08/24 03:21:24;;;;;;;110.57;57.75;;;21.40;86.00;;;;;;4942423;28;91230;-51
2023/08/24 03:23:49;;;;;;;113.28;57.80;;;21.40;86.00;;;;;;4940246;28;93020;-52
2023/08/24 03:26:16;;;;;;;113.03;58.40;;;21.40;86.00;;;;;;4941077;28;91247;-53
2023/08/24 03:28:42;;;;;;;110.95;57.90;;;21.40;86.10;;;;;;4940454;28;95046;-52
2023/08/24 03:31:08;;;;;;;111.70;58.28;;;21.30;86.10;;;;;;4939195;28;90863;-51
2023/08/24 03:33:34;;;;;;;110.88;57.90;;;21.30;86.20;;;;;;4944363;28;90394;-53
2023/08/24 03:36:00;;;;;;;110.68;57.75;;;21.30;86.20;;;;;;4941437;28;93472;-53
2023/08/24 03:38:27;;;;;;;112.75;57.97;;;21.30;86.30;;;;;;4941320;28;90409;-53
2023/08/24 03:41:00;;;;;;;111.88;57.42;;;21.30;86.30;;;;;;4937632;28;92213;-49
2023/08/24 03:43:26;;;;;;;109.85;57.63;;;21.20;86.30;;;;;;4943423;28;90024;-52
2023/08/24 03:45:51;;;;;;;113.30;57.97;;;21.20;86.40;;;;;;4944295;28;91878;-53
2023/08/24 03:48:18;;;;;;;111.22;58.25;;;21.20;86.50;;;;;;4940310;28;91700;-50
2023/08/24 03:50:43;;;;;;;112.57;57.88;;;21.20;86.60;;;;;;4943228;28;92428;-51
2023/08/24 03:53:09;;;;;;;110.53;57.30;;;21.20;86.70;;;;;;4939718;28;92879;-51
2023/08/24 03:55:34;;;;;;;110.93;57.42;;;21.20;86.70;;;;;;4941431;28;90936;-52
2023/08/24 03:58:00;;;;;;;111.07;57.92;;;21.20;86.70;;;;;;4940346;28;91669;-48
2023/08/24 04:00:26;;;;;;;111.53;57.90;;;21.10;86.90;;;;;;4942326;28;90289;-52
2023/08/24 04:02:51;;;;;;;112.80;57.55;;;21.10;86.90;;;;;;4936368;28;92228;-51
2023/08/24 04:05:17;;;;;;;110.78;57.75;;;21.10;87.40;;;;;;4943748;28;90787;-49
2023/08/24 04:07:43;;;;;;;113.18;57.75;;;21.10;87.10;;;;;;4942289;28;90297;-53
2023/08/24 04:10:09;;;;;;;109.45;57.15;;;21.10;86.90;;;;;;4941977;28;89999;-51
2023/08/24 04:12:35;;;;;;;111.07;57.95;;;21.00;87.00;;;;;;4940734;28;90613;-51
2023/08/24 04:15:01;;;;;;;110.15;57.63;;;21.00;87.10;;;;;;4945019;28;90832;-52
2023/08/24 04:17:26;;;;;;;110.85;57.80;;;21.00;87.10;;;;;;4939789;28;95490;-50
2023/08/24 04:19:52;;;;;;;112.97;57.97;;;21.00;87.20;;;;;;4946061;28;89974;-52
2023/08/24 04:22:18;;;;;;;110.78;58.00;;;21.00;87.30;;;;;;4938224;28;89793;-53
2023/08/24 04:24:43;;;;;;;110.38;57.65;;;21.00;87.50;;;;;;4927049;28;89548;-52
2023/08/24 04:27:09;;;;;;;110.68;57.55;;;20.90;87.50;;;;;;4941669;28;94403;-50
2023/08/24 04:29:35;;;;;;;110.45;58.10;;;20.90;87.50;;;;;;4926527;28;92378;-53
2023/08/24 04:32:00;;;;;;;109.50;57.28;;;20.90;87.60;;;;;;4943919;28;94210;-52
2023/08/24 04:34:26;;;;;;;111.78;58.05;;;20.90;87.50;;;;;;4938902;28;90852;-52
2023/08/24 04:36:52;;;;;;;111.75;58.17;;;20.90;87.50;;;;;;4944024;28;93770;-52
2023/08/24 04:39:18;;;;;;;109.95;57.85;;;20.90;87.70;;;;;;4939576;28;92664;-53
2023/08/24 04:41:44;;;;;;;109.45;57.28;;;20.90;88.00;;;;;;4946214;28;92617;-53
2023/08/24 04:44:09;;;;;;;110.38;57.08;;;20.80;87.70;;;;;;4941884;28;90136;-53
2023/08/24 04:46:35;;;;;;;110.05;57.42;;;20.80;87.80;;;;;;4940250;28;92744;-52
2023/08/24 04:49:01;;;;;;;110.97;57.40;;;20.80;87.80;;;;;;4945662;28;90717;-52
2023/08/24 04:51:27;;;;;;;110.68;58.08;;;20.80;87.80;;;;;;4936840;28;89795;-52
2023/08/24 04:53:53;;;;;;;109.93;57.67;;;20.80;88.00;;;;;;4941385;28;94710;-48
2023/08/24 04:56:19;;;;;;;109.82;57.03;;;20.80;88.00;;;;;;4936005;28;90958;-53
2023/08/24 04:58:58;;;;;;;110.40;57.50;;;20.80;88.00;;;;;;4940416;28;91873;-53
2023/08/24 05:01:24;;;;;;;110.78;58.25;;;20.80;88.10;;;;;;4942399;28;91222;-49
2023/08/24 05:03:51;;;;;;;110.80;57.95;;;20.70;87.90;;;;;;4941152;28;89585;-50
2023/08/24 05:06:17;;;;;;;110.93;57.40;;;20.80;88.30;;;;;;4941087;28;89651;-52
2023/08/24 05:08:43;;;;;;;110.15;57.58;;;20.80;88.00;;;;;;4936954;28;91468;-49
2023/08/24 05:11:18;;;;;;;110.10;57.72;;;20.80;88.00;;;;;;4941011;28;94120;-52
2023/08/24 05:13:44;;;;;;;110.38;57.22;;;20.70;88.10;;;;;;4938384;28;94619;-50
2023/08/24 05:16:10;;;;;;;110.40;57.90;;;20.70;88.40;;;;;;4942231;28;90441;-52
2023/08/24 05:18:39;;;;;;;111.60;57.78;;;20.70;88.20;;;;;;4939082;28;91667;-52
2023/08/24 05:21:05;;;;;;;110.13;57.45;;;20.70;88.10;;;;;;4931947;28;91723;-51
2023/08/24 05:23:32;;;;;;;111.32;57.72;;;20.70;88.60;;;;;;4941628;28;90297;-53
2023/08/24 05:25:58;;;;;;;110.10;57.22;;;20.70;88.00;;;;;;4940687;28;92144;-52
2023/08/24 05:28:28;;;;;;;110.20;56.95;;;20.70;88.20;;;;;;4943298;28;93888;-50
2023/08/24 05:30:54;;;;;;;109.63;57.58;;;20.80;88.30;;;;;;4941598;28;94831;-53
2023/08/24 05:33:21;;;;;;;110.32;57.25;;;20.70;88.30;;;;;;4943383;28;90785;-52
2023/08/24 05:35:47;;;;;;;109.97;57.80;;;20.70;88.30;;;;;;4939964;28;90213;-53
2023/08/24 05:38:16;;;;;;;110.32;57.80;;;20.80;88.40;;;;;;4945727;28;90962;-53
2023/08/24 05:40:43;;;;;;;108.75;56.85;;;20.70;88.40;;;;;;4946467;28;89930;-53
2023/08/24 05:43:09;;;;;;;110.40;57.65;;;20.70;88.30;;;;;;4941858;28;92360;-53
2023/08/24 05:45:35;;;;;;;111.40;57.53;;;20.70;88.10;;;;;;4942482;28;93908;-52
2023/08/24 05:48:01;;;;;;;109.63;57.25;;;20.70;88.20;;;;;;4938178;28;92214;-51
2023/08/24 05:50:27;;;;;;;113.45;60.47;;;20.80;88.40;;;;;;4937746;28;89922;-47
2023/08/24 05:52:52;;;;;;;113.78;59.97;;;20.50;91.50;;;;;;4941912;28;91806;-48
2023/08/24 05:55:18;;;;;;;115.07;61.42;;;20.30;92.70;;;;;;4940636;28;91494;-44
2023/08/24 05:57:44;;;;;;;117.55;60.65;;;20.10;94.10;;;;;;4938197;28;90633;-48
2023/08/24 06:00:10;;;;;;;114.18;60.17;;;20.00;95.00;;;;;;4938793;28;91435;-44
2023/08/24 06:02:37;;;;;;;114.20;61.50;;;20.10;95.50;;;;;;4942007;28;89870;-46
2023/08/24 06:05:03;;;;;;;115.25;61.80;;;20.20;95.40;;;;;;4923424;28;91349;-45
2023/08/24 06:07:29;;;;;;;114.80;60.17;;;20.40;95.40;;;;;;4938944;28;94177;-47
2023/08/24 06:09:56;;;;;;;118.00;61.65;;;20.50;95.40;;;;;;4938943;28;92909;-46
2023/08/24 06:12:22;;;;;;;118.97;61.25;;;20.70;94.90;;;;;;4935898;28;94610;-48
2023/08/24 06:14:47;;;;;;;116.75;59.83;;;21.00;94.00;;;;;;4948107;28;89870;-48
2023/08/24 06:17:13;;;;;;;117.10;61.85;;;21.20;93.30;;;;;;4943242;28;89848;-51
2023/08/24 06:19:38;;;;;;;118.28;62.35;;;21.40;93.00;;;;;;4943057;28;90276;-50
2023/08/24 06:22:04;;;;;;;116.38;61.92;;;21.40;93.40;;;;;;4934966;28;89998;-45
2023/08/24 06:24:30;;;;;;;120.90;61.67;;;21.30;93.60;;;;;;4937256;28;93894;-45
2023/08/24 06:26:55;;;;;;;120.35;61.72;;;21.20;94.90;;;;;;4935752;28;91747;-44
2023/08/24 06:29:21;;;;;;;119.38;62.05;;;21.20;95.10;;;;;;4947507;28;91183;-58
2023/08/24 06:31:47;;;;;;;122.35;62.30;;;21.10;94.30;;;;;;4936140;28;91123;-53
2023/08/24 06:34:12;;;;;;;119.47;61.55;;;21.10;94.30;;;;;;4942653;28;94223;-58
2023/08/24 06:36:38;;;;;;;122.72;61.17;;;21.20;95.00;;;;;;4938966;28;89960;-61
2023/08/24 06:39:04;;;;;;;120.13;61.22;;;21.50;94.90;;;;;;4938476;28;89697;-56
2023/08/24 06:41:35;;;;;;;117.28;61.60;;;21.70;94.60;;;;;;4941531;28;90394;-56
2023/08/24 06:44:02;;;;;;;116.82;62.05;;;21.80;94.50;;;;;;4941798;28;90722;-52
2023/08/24 06:46:29;;;;;;;119.65;61.60;;;21.90;94.20;;;;;;4945439;28;90475;-44
2023/08/24 06:48:54;;;;;;;119.10;62.00;;;21.90;94.10;;;;;;4935003;28;92563;-50
2023/08/24 06:51:20;;;;;;;122.53;62.20;;;21.80;94.50;;;;;;4936397;28;90850;-50
2023/08/24 06:53:48;;;;;;;120.70;62.63;;;22.00;94.40;;;;;;4934521;28;90671;-50
2023/08/24 06:56:14;;;;;;;118.55;62.30;;;22.00;94.40;;;;;;4938777;28;92383;-55
2023/08/24 06:58:40;;;;;;;123.50;62.88;;;22.10;94.40;;;;;;4935226;28;94634;-54
2023/08/24 07:01:07;;;;;;;124.03;63.05;;;22.10;94.20;;;;;;4942028;28;92733;-53
2023/08/24 07:03:33;;;;;;;119.93;62.97;;;22.20;94.30;;;;;;4941692;28;91732;-49
2023/08/24 07:05:59;;;;;;;126.57;61.90;;;22.10;94.80;;;;;;4935907;28;95840;-52
2023/08/24 07:08:25;;;;;;;127.13;62.03;;;22.00;94.20;;;;;;4939976;28;90659;-52
2023/08/24 07:10:50;;;;;;;126.57;63.25;;;22.00;94.10;;;;;;4937420;28;95191;-59
2023/08/24 07:13:16;;;;;;;126.88;62.90;;;22.00;94.40;;;;;;4938453;28;89933;-52
2023/08/24 07:15:42;;;;;;;120.55;62.25;;;22.10;94.60;;;;;;4943428;28;91381;-58
2023/08/24 07:18:08;;;;;;;120.70;62.72;;;22.20;94.50;;;;;;4940823;28;90489;-59
2023/08/24 07:20:35;;;;;;;125.53;62.88;;;22.20;94.10;;;;;;4924137;28;93887;-51
2023/08/24 07:23:01;;;;;;;118.05;63.05;;;22.20;94.20;;;;;;4935102;28;90351;-56
2023/08/24 07:25:27;;;;;;;119.85;62.25;;;22.20;94.40;;;;;;4932075;28;90363;-54
2023/08/24 07:27:58;;;;;;;128.25;63.67;;;22.20;94.40;;;;;;4932804;28;90525;-47
2023/08/24 07:30:26;;;;;;;125.27;63.00;;;22.20;94.60;;;;;;4942296;28;90298;-52
2023/08/24 07:32:55;;;;;;;125.10;63.25;;;22.20;94.80;;;;;;4940760;28;90065;-52
2023/08/24 07:35:24;;;;;;;123.75;63.97;;;22.20;94.40;;;;;;4920802;28;93353;-51
2023/08/24 07:37:50;;;;;;;119.55;62.38;;;22.20;94.50;;;;;;4933860;28;90768;-51
2023/08/24 07:40:16;;;;;;;125.40;63.22;;;22.10;94.90;;;;;;4941054;28;89916;-45
2023/08/24 07:42:46;;;;;;;121.72;63.03;;;22.00;95.50;;;;;;4936213;28;93630;-46
2023/08/24 07:45:13;;;;;;;121.27;62.87;;;22.00;95.70;;;;;;4938358;28;91217;-47
2023/08/24 07:47:40;;;;;;;125.75;63.60;;;22.20;95.20;;;;;;4937474;28;89952;-47
2023/08/24 07:50:07;;;;;;;125.00;63.80;;;22.10;95.40;;;;;;4937335;28;92577;-49
2023/08/24 07:52:32;;;;;;;125.13;64.00;;;22.20;94.80;;;;;;4934753;28;91142;-49
2023/08/24 07:55:00;;;;;;;122.43;62.88;;;22.10;95.20;;;;;;4937012;28;91699;-48
2023/08/24 07:57:28;;;;;;;124.15;64.10;;;22.00;95.70;;;;;;4939686;28;89951;-47
2023/08/24 07:59:54;;;;;;;120.60;63.55;;;21.90;95.90;;;;;;4934723;28;92707;-47
2023/08/24 08:02:20;;;;;;;122.28;63.72;;;21.90;95.90;;;;;;4939604;28;93350;-48
2023/08/24 08:04:46;;;;;;;125.72;62.38;;;21.90;96.40;;;;;;4934512;28;94061;-46
2023/08/24 08:07:12;;;;;;;121.38;62.88;;;21.80;96.50;;;;;;4940052;28;89660;-50
2023/08/24 08:09:38;;;;;;;125.18;63.67;;;21.70;96.70;;;;;;4937775;28;93123;-44
2023/08/24 08:12:04;;;;;;;122.03;64.45;;;21.70;97.30;;;;;;4913418;28;91477;-49
2023/08/24 08:14:30;;;;;;;121.82;62.85;;;21.70;97.20;;;;;;4935864;28;94501;-50
2023/08/24 08:16:56;;;;;;;121.55;63.95;;;21.80;98.10;;;;;;4942493;28;93952;-48
2023/08/24 08:19:25;;;;;;;123.78;62.58;;;21.90;97.60;;;;;;4928717;28;90163;-49
2023/08/24 08:21:50;;;;;;;119.30;61.47;;;21.90;97.80;;;;;;4933325;28;95805;-51
2023/08/24 08:24:16;;;;;;;120.60;62.30;;;21.90;96.50;;;;;;4937123;28;90320;-46
2023/08/24 08:26:42;;;;;;;117.10;61.75;;;21.70;97.30;;;;;;4935703;28;93553;-48
2023/08/24 08:29:07;;;;;;;119.80;62.58;;;21.70;97.00;;;;;;4929056;28;96430;-51
2023/08/24 08:31:33;;;;;;;117.85;61.63;;;21.60;98.10;;;;;;4937195;28;90778;-47
2023/08/24 08:33:59;;;;;;;121.15;62.15;;;21.60;98.80;;;;;;4931478;28;90574;-50
2023/08/24 08:36:24;;;;;;;117.85;62.10;;;21.70;98.10;;;;;;4942662;28;91118;-45
2023/08/24 08:38:50;;;;;;;118.40;61.45;;;21.70;99.10;;;;;;4931178;28;94500;-50
2023/08/24 08:41:21;;;;;;;118.70;62.55;;;21.70;97.20;;;;;;4936633;28;89883;-49
2023/08/24 08:43:47;;;;;;;122.40;61.97;;;21.70;98.60;;;;;;4939847;28;90662;-45
2023/08/24 08:46:15;;;;;;;119.68;62.15;;;21.70;98.40;;;;;;4937929;28;97947;-47
2023/08/24 08:48:41;;;;;;;120.85;61.80;;;21.70;98.30;;;;;;4931901;28;91160;-48
2023/08/24 08:51:09;;;;;;;121.25;61.28;;;21.60;97.40;;;;;;4932948;28;89174;-48
2023/08/24 08:53:35;;;;;;;119.53;62.28;;;21.70;97.10;;;;;;4935276;28;92585;-49
2023/08/24 08:56:04;;;;;;;122.75;62.55;;;21.70;97.10;;;;;;4935805;28;90480;-47
2023/08/24 08:58:31;;;;;;;123.05;62.28;;;21.60;97.40;;;;;;4941496;28;95490;-52
2023/08/24 09:00:59;;;;;;;117.60;61.63;;;21.60;97.40;;;;;;4928413;28;93551;-45
2023/08/24 09:03:27;;;;;;;119.47;62.40;;;21.70;97.60;;;;;;4938333;28;91819;-47
2023/08/24 09:05:52;;;;;;;115.97;60.05;;;21.60;97.80;;;;;;4940566;28;90713;-48
2023/08/24 09:08:18;;;;;;;121.20;62.05;;;21.50;97.70;;;;;;4940662;28;90628;-46
2023/08/24 09:10:44;;;;;;;117.35;61.00;;;21.40;98.30;;;;;;4934705;28;92029;-46
2023/08/24 09:13:10;;;;;;;115.82;59.63;;;21.40;98.30;;;;;;4934239;28;91802;-48
2023/08/24 09:15:39;;;;;;;115.88;59.75;;;21.40;98.00;;;;;;4938946;28;89690;-47
2023/08/24 09:18:05;;;;;;;115.38;60.40;;;21.30;98.10;;;;;;4923377;28;90250;-50
2023/08/24 09:20:30;;;;;;;114.97;59.58;;;21.20;98.30;;;;;;4938249;28;91628;-51
2023/08/24 09:22:57;;;;;;;117.20;59.55;;;21.20;98.20;;;;;;4941322;28;91304;-50
2023/08/24 09:25:26;;;;;;;115.10;59.47;;;21.20;98.60;;;;;;4936135;28;90014;-44
2023/08/24 09:28:06;;;;;;;116.10;59.13;;;21.10;98.70;;;;;;4938316;28;90794;-51
2023/08/24 09:30:34;;;;;;;113.03;58.83;;;21.10;98.50;;;;;;4941088;28;91688;-50
2023/08/24 09:33:10;;;;;;;113.43;58.28;;;21.10;97.60;;;;;;4939909;28;91914;-54
2023/08/24 09:35:36;;;;;;;112.57;58.28;;;21.10;97.90;;;;;;4931663;28;90154;-52
2023/08/24 09:38:29;;;;;;;124.38;60.40;;;21.20;96.90;;;;;;4943457;28;91284;-51
2023/08/24 09:40:55;;;;;;;123.22;59.30;;;21.40;97.10;;;;;;4928914;28;88696;-54
2023/08/24 09:43:22;;;;;;;120.55;59.72;;;21.60;96.60;;;;;;4940204;28;89703;-48
2023/08/24 09:45:52;;;;;;;119.18;59.40;;;21.60;96.60;;;;;;4949902;28;94363;-48
2023/08/24 09:48:18;;;;;;;116.13;59.00;;;21.70;95.30;;;;;;4935136;28;94029;-44
2023/08/24 09:50:46;;;;;;;114.85;59.00;;;21.70;96.00;;;;;;4940471;28;90728;-47
2023/08/24 09:53:22;;;;;;;113.45;58.92;;;21.80;95.90;;;;;;4932720;28;90028;-47
2023/08/24 09:56:08;;;;;;;113.85;59.13;;;21.70;95.60;;;;;;4941255;28;91441;-49
2023/08/24 09:58:34;;;;;;;117.38;58.67;;;21.80;96.10;;;;;;4937726;28;91508;-51
2023/08/24 10:01:02;;;;;;;115.38;58.83;;;21.80;95.60;;;;;;4941150;28;90200;-49
2023/08/24 10:03:32;;;;;;;115.25;58.03;;;21.70;96.20;;;;;;4934429;28;90267;-44
2023/08/24 10:06:00;;;;;;;114.40;58.83;;;21.80;96.10;;;;;;4942410;28;92970;-45
2023/08/24 10:08:28;;;;;;;113.90;58.53;;;21.80;95.90;;;;;;4937752;28;90871;-48
2023/08/24 10:10:58;;;;;;;113.15;58.90;;;21.80;96.60;;;;;;4937548;28;89653;-44
2023/08/24 10:13:47;;;;;;;116.60;58.95;;;21.80;97.20;;;;;;4940624;28;91725;-45
2023/08/24 10:16:14;;;;;;;113.72;58.63;;;21.90;96.60;;;;;;4934993;28;91463;-46
2023/08/24 10:18:40;;;;;;;114.82;58.72;;;21.80;97.10;;;;;;4946888;28;90094;-46
2023/08/24 10:21:08;;;;;;;121.28;60.08;;;21.80;96.60;;;;;;4938342;28;90158;-47
2023/08/24 10:23:35;;;;;;;149.73;64.53;;;21.90;96.60;;;;;;4937412;28;91338;-46
2023/08/24 10:26:03;;;;;;;143.73;63.88;;;22.10;95.90;;;;;;4931100;28;91125;-49
2023/08/24 10:28:30;;;;;;;128.50;61.47;;;22.10;95.90;;;;;;4938711;28;90816;-49
2023/08/24 10:30:59;;;;;;;120.93;60.03;;;22.10;95.90;;;;;;4942361;28;90028;-48
2023/08/24 10:33:26;;;;;;;122.18;60.38;;;22.00;95.30;;;;;;4933140;28;89845;-46
2023/08/24 10:35:52;;;;;;;121.38;60.20;;;22.10;95.90;;;;;;4933449;28;90146;-49
2023/08/24 10:38:28;;;;;;;120.53;59.85;;;22.20;96.00;;;;;;4936507;28;93509;-45
2023/08/24 10:41:00;;;;;;;115.90;59.67;;;22.10;96.00;;;;;;4936004;28;90169;-43
2023/08/24 10:43:26;;;;;;;115.88;59.28;;;22.10;95.60;;;;;;4936486;28;91008;-47
2023/08/24 10:46:02;;;;;;;118.15;59.50;;;22.00;95.70;;;;;;4933771;28;90035;-44
2023/08/24 10:48:51;;;;;;;114.88;59.60;;;22.10;96.30;;;;;;4939251;28;91630;-48
2023/08/24 10:51:21;;;;;;;118.13;60.28;;;22.10;96.40;;;;;;4941822;28;89798;-46
2023/08/24 10:53:52;;;;;;;116.28;59.75;;;22.10;96.70;;;;;;4946792;28;90360;-47
2023/08/24 10:56:18;;;;;;;114.03;59.55;;;22.10;96.00;;;;;;4940074;28;90782;-47
2023/08/24 10:58:45;;;;;;;114.88;59.17;;;22.10;96.00;;;;;;4936045;28;91477;-44
2023/08/24 11:01:23;;;;;;;117.43;59.53;;;22.20;95.70;;;;;;4928774;28;91898;-49
2023/08/24 11:03:50;;;;;;;115.18;59.38;;;22.20;95.90;;;;;;4928380;28;91743;-50
2023/08/24 11:06:24;;;;;;;116.82;59.25;;;22.20;95.70;;;;;;4939844;28;91374;-43
2023/08/24 11:09:06;;;;;;;118.55;59.20;;;22.20;96.00;;;;;;4937025;28;91592;-50
2023/08/24 11:11:32;;;;;;;118.97;59.70;;;22.20;95.80;;;;;;4939323;28;90238;-45
2023/08/24 11:14:19;;;;;;;115.63;59.35;;;22.20;96.20;;;;;;4940392;28;90894;-57
2023/08/24 11:16:48;;;;;;;115.53;59.42;;;22.10;96.00;;;;;;4940617;28;90051;-52
2023/08/24 11:19:15;;;;;;;116.05;59.50;;;22.00;96.50;;;;;;4933545;28;90276;-50
2023/08/24 11:21:42;;;;;;;114.80;60.10;;;22.00;96.30;;;;;;4934442;28;94082;-51
2023/08/24 11:24:16;;;;;;;114.20;59.50;;;22.00;96.40;;;;;;4935507;28;89882;-48
2023/08/24 11:26:46;;;;;;;114.05;59.75;;;22.10;95.80;;;;;;4926889;28;91542;-52
2023/08/24 11:29:12;;;;;;;114.00;59.73;;;22.00;95.90;;;;;;4942943;28;91143;-50
2023/08/24 11:31:38;;;;;;;113.60;59.92;;;22.10;96.60;;;;;;4937425;28;91829;-56
2023/08/24 11:34:05;;;;;;;113.70;59.50;;;22.00;97.10;;;;;;4939086;28;91127;-54
2023/08/24 11:36:31;;;;;;;115.63;59.30;;;22.00;96.70;;;;;;4934918;28;91822;-47
2023/08/24 11:39:00;;;;;;;114.20;59.97;;;22.10;96.20;;;;;;4935612;28;90264;-49
2023/08/24 11:41:26;;;;;;;114.57;59.88;;;22.10;96.20;;;;;;4932033;28;94470;-45
2023/08/24 11:44:00;;;;;;;113.72;59.97;;;22.10;96.30;;;;;;4936010;28;90374;-48
2023/08/24 11:46:29;;;;;;;113.43;59.30;;;22.30;95.60;;;;;;4941458;28;89417;-59
2023/08/24 11:48:55;;;;;;;115.50;59.67;;;22.20;95.70;;;;;;4938346;28;89940;-42
2023/08/24 11:51:20;;;;;;;113.68;59.40;;;22.20;96.00;;;;;;4938739;28;89939;-47
2023/08/24 11:53:47;;;;;;;117.13;59.72;;;22.20;96.20;;;;;;4939001;28;92163;-47
2023/08/24 11:56:13;;;;;;;113.95;59.45;;;22.20;95.80;;;;;;4945332;28;89961;-50
2023/08/24 11:58:40;;;;;;;114.68;59.67;;;22.30;95.60;;;;;;4939266;28;93726;-49
2023/08/24 12:01:07;;;;;;;113.82;59.55;;;22.30;95.20;;;;;;4942622;28;92588;-55
2023/08/24 12:03:33;;;;;;;114.03;59.33;;;22.40;94.60;;;;;;4936355;28;94898;-51
2023/08/24 12:06:09;;;;;;;114.57;58.85;;;22.40;95.40;;;;;;4943093;28;91217;-50
2023/08/24 12:08:41;;;;;;;115.82;59.47;;;22.40;95.10;;;;;;4941114;28;89988;-52
2023/08/24 12:11:18;;;;;;;112.53;58.95;;;22.40;95.00;;;;;;4944622;28;91397;-57
2023/08/24 12:13:49;;;;;;;113.07;59.03;;;22.30;95.40;;;;;;4939960;28;95164;-46
2023/08/24 12:16:19;;;;;;;112.35;59.15;;;22.30;94.80;;;;;;4944458;28;90805;-47
2023/08/24 12:19:04;;;;;;;115.28;59.45;;;22.40;94.50;;;;;;4942524;28;92318;-42
2023/08/24 12:21:30;;;;;;;112.20;58.65;;;22.30;94.60;;;;;;4918067;28;89642;-44